Time;durP1;ratioP1;P1;durP2;ratioP2;P2;SDS_P1;SDS_P2;PMS_P1;PMS_P2;Temp;Humidity;BMP_temperature;BMP_pressure;BME280_temperature;BME280_humidity;BME280_pressure;Samples;Min_cycle;Max_cycle;Signal;HPM_P1;HPM_P2
2023/09/10 00:01:07;;;;;;;16.92;11.98;;;;;;;17.57;100.00;93050.94;5023962;28;20431;-80
2023/09/10 00:03:32;;;;;;;17.73;11.90;;;;;;;17.56;100.00;93054.69;5024647;28;20042;-81
2023/09/10 00:06:06;;;;;;;16.05;11.80;;;;;;;17.56;100.00;93049.38;5022642;28;20042;-80
2023/09/10 00:08:32;;;;;;;20.92;13.10;;;;;;;17.56;100.00;93052.03;5023676;28;20041;-81
2023/09/10 00:10:58;;;;;;;17.73;12.82;;;;;;;17.56;100.00;93045.94;5008116;28;20030;-81
2023/09/10 00:13:25;;;;;;;19.30;12.65;;;;;;;17.54;100.00;93051.56;5022624;28;20458;-81
2023/09/10 00:15:51;;;;;;;16.67;12.00;;;;;;;17.48;100.00;93039.59;5016044;28;20027;-80
2023/09/10 00:18:18;;;;;;;18.83;11.75;;;;;;;17.48;100.00;93042.22;5003761;28;20030;-81
2023/09/10 00:20:43;;;;;;;16.23;11.77;;;;;;;17.45;100.00;93042.84;5001745;28;20046;-80
2023/09/10 00:23:09;;;;;;;19.02;12.38;;;;;;;17.44;100.00;93044.72;5017675;28;20052;-80
2023/09/10 00:25:35;;;;;;;18.55;12.65;;;;;;;17.42;100.00;93048.78;5024291;28;20435;-81
2023/09/10 00:28:00;;;;;;;21.90;13.02;;;;;;;17.37;100.00;93046.31;5019062;28;20508;-81
2023/09/10 00:30:27;;;;;;;17.83;11.85;;;;;;;17.39;100.00;93049.41;4987368;28;20029;-80
2023/09/10 00:32:53;;;;;;;17.20;12.65;;;;;;;17.37;100.00;93043.66;5002763;28;20062;-80
2023/09/10 00:35:18;;;;;;;16.80;11.43;;;;;;;17.37;100.00;93046.31;5003582;28;20049;-81
2023/09/10 00:37:44;;;;;;;19.17;12.77;;;;;;;17.36;100.00;93045.53;5005273;28;20050;-81
2023/09/10 00:40:10;;;;;;;17.33;12.05;;;;;;;17.35;100.00;93048.47;5000490;28;20440;-81
2023/09/10 00:42:37;;;;;;;16.77;12.63;;;;;;;17.30;100.00;93046.00;4986034;28;20030;-80
2023/09/10 00:45:07;;;;;;;18.48;12.13;;;;;;;17.31;100.00;93040.38;5000009;28;20026;-81
2023/09/10 00:47:35;;;;;;;17.45;12.75;;;;;;;17.30;100.00;93046.00;5010312;28;20042;-82
2023/09/10 00:50:02;;;;;;;16.50;12.32;;;;;;;17.27;100.00;93036.84;5020311;28;20034;-81
2023/09/10 00:52:29;;;;;;;15.80;11.77;;;;;;;17.25;100.00;93039.78;5020277;28;20092;-81
2023/09/10 00:54:55;;;;;;;17.45;11.77;;;;;;;17.24;100.00;93035.56;5022352;28;20537;-81
2023/09/10 00:57:21;;;;;;;18.33;12.50;;;;;;;17.24;100.00;93032.91;5017727;28;20049;-81
2023/09/10 00:59:47;;;;;;;19.50;12.60;;;;;;;17.22;100.00;93029.81;5002740;28;20402;-81
2023/09/10 01:02:15;;;;;;;19.90;12.20;;;;;;;17.23;100.00;93034.03;5003086;28;20373;-81
2023/09/10 01:04:41;;;;;;;17.17;11.45;;;;;;;17.22;100.00;93029.81;5002824;28;20057;-80
2023/09/10 01:07:07;;;;;;;20.33;11.73;;;;;;;17.24;100.00;93026.84;5001970;28;20038;-81
2023/09/10 01:09:33;;;;;;;18.38;12.32;;;;;;;17.20;100.00;93024.09;5003626;28;20080;-80
2023/09/10 01:12:17;;;;;;;20.65;11.68;;;;;;;17.16;100.00;93023.16;5020831;28;20041;-81
2023/09/10 01:15:24;;;;;;;17.77;12.63;;;;;;;17.15;100.00;93026.88;5022182;28;20034;-80
2023/09/10 01:18:09;;;;;;;19.30;11.65;;;;;;;17.13;100.00;93021.13;5021096;28;20071;-81
2023/09/10 01:21:12;;;;;;;22.88;11.80;;;;;;;17.12;100.00;93019.56;5003740;28;20041;-81
2023/09/10 01:24:02;;;;;;;20.55;11.98;;;;;;;17.13;100.00;93029.03;5014767;28;20030;-81
2023/09/10 01:26:27;;;;;;;15.18;11.77;;;;;;;17.13;100.00;93030.91;5021468;28;20042;-81
2023/09/10 01:28:53;;;;;;;15.52;11.35;;;;;;;17.11;100.00;93022.53;5015352;28;20055;-81
2023/09/10 01:31:19;;;;;;;17.48;11.45;;;;;;;17.12;100.00;93024.84;5004566;28;20061;-81
2023/09/10 01:33:51;;;;;;;16.55;11.88;;;;;;;17.12;100.00;93026.72;5003196;28;20034;-81
2023/09/10 01:36:28;;;;;;;;;;;;;;;17.11;100.00;93022.53;5014279;28;20327;-81
2023/09/10 01:39:02;;;;;;;15.75;11.38;;;;;;;17.09;100.00;93030.78;5020379;28;19917;-81
2023/09/10 01:41:31;;;;;;;19.83;11.80;;;;;;;17.10;100.00;93024.41;5015158;28;20050;-82
2023/09/10 01:43:58;;;;;;;21.85;12.27;;;;;;;17.10;100.00;93029.69;5002332;28;20037;-80
2023/09/10 01:46:26;;;;;;;16.50;11.73;;;;;;;17.10;100.00;93020.97;5000376;28;20029;-81
2023/09/10 01:48:52;;;;;;;19.80;12.27;;;;;;;17.07;100.00;93030.31;5013954;28;20063;-80
2023/09/10 01:51:17;;;;;;;19.65;12.57;;;;;;;17.05;100.00;93024.56;5014696;28;20030;-81
2023/09/10 01:53:43;;;;;;;16.15;11.25;;;;;;;17.04;100.00;93025.63;5021135;28;20038;-80
2023/09/10 01:56:09;;;;;;;16.50;11.63;;;;;;;17.01;100.00;93021.75;5020076;28;20064;-81
2023/09/10 01:58:35;;;;;;;17.15;11.52;;;;;;;17.02;100.00;93025.97;5020936;28;20121;-80
2023/09/10 02:01:02;;;;;;;14.57;10.90;;;;;;;16.99;100.00;93021.28;5002716;28;20077;-80
2023/09/10 02:03:28;;;;;;;16.77;12.32;;;;;;;16.97;100.00;93028.75;5012991;28;20038;-80
2023/09/10 02:05:53;;;;;;;14.63;11.48;;;;;;;16.97;100.00;93033.28;5021557;28;20033;-80
2023/09/10 02:08:19;;;;;;;16.77;11.70;;;;;;;16.96;100.00;93026.44;5019914;28;20049;-81
2023/09/10 02:10:44;;;;;;;18.15;12.00;;;;;;;16.94;100.00;93018.03;5018910;28;20049;-81
2023/09/10 02:13:10;;;;;;;19.55;12.35;;;;;;;16.93;100.00;93027.03;5014817;28;20026;-81
2023/09/10 02:15:36;;;;;;;19.38;12.85;;;;;;;16.94;100.00;93020.69;5001071;28;20050;-80
2023/09/10 02:18:02;;;;;;;17.85;12.63;;;;;;;16.96;100.00;93015.88;5002660;28;20034;-81
2023/09/10 02:20:27;;;;;;;19.02;12.63;;;;;;;16.97;100.00;93025.34;5000669;28;20061;-80
2023/09/10 02:22:53;;;;;;;17.88;12.32;;;;;;;16.97;100.00;93025.34;5003541;28;20038;-80
2023/09/10 02:25:19;;;;;;;16.33;12.48;;;;;;;16.96;100.00;93021.91;5001811;28;20696;-80
2023/09/10 02:27:44;;;;;;;18.45;12.45;;;;;;;16.97;100.00;93020.03;5000387;28;20368;-81
2023/09/10 02:30:11;;;;;;;17.90;12.00;;;;;;;16.96;100.00;93016.63;5000441;28;20054;-82
2023/09/10 02:32:37;;;;;;;18.02;12.90;;;;;;;16.95;100.00;93019.56;5002470;28;20043;-80
2023/09/10 02:35:03;;;;;;;16.00;12.10;;;;;;;16.94;100.00;93020.69;4999624;28;20093;-81
2023/09/10 02:37:30;;;;;;;19.75;11.90;;;;;;;16.93;100.00;93021.75;5000821;28;20030;-80
2023/09/10 02:39:56;;;;;;;18.42;12.75;;;;;;;16.90;100.00;93017.09;5009799;28;20478;-80
2023/09/10 02:42:21;;;;;;;18.65;12.43;;;;;;;16.87;100.00;93015.09;5018546;28;20038;-81
2023/09/10 02:44:47;;;;;;;19.73;12.80;;;;;;;16.84;100.00;93011.19;5021161;28;20026;-81
2023/09/10 02:47:13;;;;;;;17.08;11.68;;;;;;;16.80;100.00;93011.03;5022445;28;20042;-80
2023/09/10 02:49:38;;;;;;;19.15;12.93;;;;;;;16.79;100.00;93006.81;5019944;28;20046;-81
2023/09/10 02:52:04;;;;;;;17.95;12.43;;;;;;;16.77;100.00;93014.25;5009519;28;20106;-81
2023/09/10 02:54:30;;;;;;;15.70;11.98;;;;;;;16.76;100.00;93012.72;5002275;28;20046;-80
2023/09/10 02:56:55;;;;;;;18.65;12.52;;;;;;;16.74;100.00;93009.59;5002895;28;20038;-80
2023/09/10 02:59:25;;;;;;;20.00;12.60;;;;;;;16.72;100.00;93011.78;5039595;28;20122;-81
2023/09/10 03:01:52;;;;;;;17.73;11.93;;;;;;;16.71;100.00;93004.94;5025708;28;20033;-81
2023/09/10 03:04:18;;;;;;;17.90;13.00;;;;;;;16.68;100.00;93000.25;5013999;28;20499;-80
2023/09/10 03:06:48;;;;;;;22.38;13.38;;;;;;;16.69;100.00;93001.84;5009084;28;20036;-80
2023/09/10 03:09:15;;;;;;;18.30;12.82;;;;;;;16.71;100.00;93006.81;5008106;28;20030;-81
2023/09/10 03:11:43;;;;;;;20.70;12.35;;;;;;;16.67;100.00;93009.28;5009592;28;20049;-81
2023/09/10 03:14:09;;;;;;;17.15;12.43;;;;;;;16.64;100.00;93015.22;5019314;28;20125;-81
2023/09/10 03:16:36;;;;;;;17.70;12.75;;;;;;;16.63;100.00;93013.66;5007179;28;20084;-80
2023/09/10 03:19:03;;;;;;;16.58;12.30;;;;;;;16.60;100.00;93006.34;5008162;28;20046;-81
2023/09/10 03:21:28;;;;;;;16.95;12.77;;;;;;;16.58;100.00;93004.00;5007216;28;20034;-82
2023/09/10 03:23:54;;;;;;;19.77;12.88;;;;;;;16.56;100.00;93013.34;5022621;28;20033;-81
2023/09/10 03:26:20;;;;;;;18.85;13.00;;;;;;;16.55;100.00;93009.13;4991220;28;20478;-81
2023/09/10 03:28:46;;;;;;;20.10;12.40;;;;;;;16.54;100.00;93004.94;5005250;28;20037;-80
2023/09/10 03:31:11;;;;;;;17.77;13.23;;;;;;;16.54;100.00;93004.94;5024267;28;20042;-81
2023/09/10 03:33:37;;;;;;;21.13;13.40;;;;;;;16.54;100.00;93004.94;5025766;28;20046;-81
2023/09/10 03:36:03;;;;;;;20.33;13.45;;;;;;;16.53;100.00;93000.75;5039422;28;20026;-82
2023/09/10 03:38:29;;;;;;;16.42;12.73;;;;;;;16.55;100.00;92998.56;5044326;28;20036;-81
2023/09/10 03:40:55;;;;;;;21.88;13.88;;;;;;;16.54;100.00;92997.78;5028958;28;20037;-81
2023/09/10 03:43:20;;;;;;;20.85;13.10;;;;;;;16.52;100.00;92994.66;5028918;28;20098;-81
2023/09/10 03:45:46;;;;;;;17.08;12.80;;;;;;;16.50;100.00;92988.91;5009065;28;20037;-81
2023/09/10 03:48:13;;;;;;;18.58;13.85;;;;;;;16.51;100.00;92987.84;5014488;28;20400;-82
2023/09/10 03:50:38;;;;;;;17.63;13.40;;;;;;;16.49;100.00;92989.25;5007401;28;20480;-81
2023/09/10 03:53:04;;;;;;;16.92;12.88;;;;;;;16.48;100.00;92982.38;5007492;28;20076;-80
2023/09/10 03:55:30;;;;;;;19.15;13.18;;;;;;;16.45;100.00;92984.56;5012593;28;20053;-81
2023/09/10 03:57:56;;;;;;;18.77;13.25;;;;;;;16.45;100.00;92989.06;5026746;28;20049;-81
2023/09/10 04:00:22;;;;;;;17.05;12.80;;;;;;;16.42;100.00;92985.19;4993376;28;20551;-81
2023/09/10 04:02:48;;;;;;;21.15;13.32;;;;;;;16.40;100.00;92979.44;4997764;28;20037;-80
2023/09/10 04:05:14;;;;;;;18.10;13.30;;;;;;;16.44;100.00;92977.72;5016442;28;20022;-80
2023/09/10 04:07:40;;;;;;;18.77;13.30;;;;;;;16.47;100.00;92983.50;4987260;28;20022;-81
2023/09/10 04:10:09;;;;;;;18.15;13.10;;;;;;;16.42;100.00;92982.53;5013460;28;20025;-80
2023/09/10 04:12:36;;;;;;;20.45;13.63;;;;;;;16.39;100.00;92975.25;4995542;28;20073;-81
2023/09/10 04:15:02;;;;;;;18.35;12.40;;;;;;;16.40;100.00;92976.78;5010610;28;20030;-80
2023/09/10 04:17:29;;;;;;;18.60;13.20;;;;;;;16.36;100.00;92972.44;4993955;28;20056;-81
2023/09/10 04:19:58;;;;;;;18.00;13.65;;;;;;;16.36;100.00;92983.78;4971618;28;20102;-81
2023/09/10 04:22:24;;;;;;;19.40;13.50;;;;;;;16.33;100.00;92981.00;5014626;28;20034;-81
2023/09/10 04:24:50;;;;;;;20.10;13.35;;;;;;;16.31;100.00;92981.28;5013296;28;20065;-82
2023/09/10 04:27:16;;;;;;;21.48;14.38;;;;;;;16.31;100.00;92978.66;4996239;28;20468;-81
2023/09/10 04:29:41;;;;;;;18.65;13.55;;;;;;;16.29;100.00;92978.19;4996534;28;20538;-82
2023/09/10 04:32:07;;;;;;;20.52;12.88;;;;;;;16.31;100.00;92983.16;4978244;28;20543;-81
2023/09/10 04:34:33;;;;;;;17.67;13.45;;;;;;;16.30;100.00;92984.22;4993346;28;20467;-81
2023/09/10 04:36:58;;;;;;;19.80;13.23;;;;;;;16.30;100.00;92990.31;5010913;28;20076;-80
2023/09/10 04:39:24;;;;;;;18.50;13.68;;;;;;;16.30;100.00;92990.31;4993023;28;20116;-81
2023/09/10 04:41:50;;;;;;;17.65;12.82;;;;;;;16.30;100.00;92990.31;5011248;28;20044;-80
2023/09/10 04:44:17;;;;;;;17.98;13.48;;;;;;;16.27;100.00;92984.88;5000401;28;20440;-81
2023/09/10 04:46:43;;;;;;;24.70;13.88;;;;;;;16.32;100.00;92995.28;5011563;28;20030;-80
2023/09/10 04:49:08;;;;;;;19.20;13.23;;;;;;;16.30;100.00;92985.03;4985381;28;20129;-81
2023/09/10 04:51:34;;;;;;;18.30;13.07;;;;;;;16.33;100.00;92987.03;4992117;28;20037;-80
2023/09/10 04:54:00;;;;;;;20.58;13.85;;;;;;;16.31;100.00;92985.81;5010612;28;20026;-82
2023/09/10 04:56:26;;;;;;;19.67;13.93;;;;;;;16.30;100.00;92987.69;4986204;28;20093;-81
2023/09/10 04:58:51;;;;;;;21.10;13.57;;;;;;;16.30;100.00;92990.31;5016656;28;20053;-81
2023/09/10 05:01:17;;;;;;;20.45;13.75;;;;;;;16.28;100.00;92992.47;5006883;28;20046;-81
2023/09/10 05:03:43;;;;;;;25.33;13.68;;;;;;;16.27;100.00;92995.44;5016654;28;20053;-81
2023/09/10 05:06:09;;;;;;;16.95;13.07;;;;;;;16.29;100.00;92994.03;5016047;28;20036;-82
2023/09/10 05:08:34;;;;;;;20.23;13.65;;;;;;;16.31;100.00;92991.09;5027549;28;20042;-81
2023/09/10 05:11:01;;;;;;;17.83;12.70;;;;;;;16.33;100.00;92996.84;5010030;28;20033;-82
2023/09/10 05:13:27;;;;;;;19.65;13.15;;;;;;;16.34;100.00;93001.03;5011425;28;20037;-82
2023/09/10 05:15:57;;;;;;;17.05;12.48;;;;;;;16.37;100.00;93006.47;5025998;28;20092;-81
2023/09/10 05:18:24;;;;;;;19.67;13.00;;;;;;;16.40;100.00;93003.22;5009474;28;20038;-81
2023/09/10 05:20:55;;;;;;;16.92;12.95;;;;;;;16.41;100.00;93004.78;5013642;28;20065;-81
2023/09/10 05:23:23;;;;;;;19.98;13.40;;;;;;;16.48;100.00;93006.16;5010912;28;20125;-82
2023/09/10 05:25:50;;;;;;;18.85;12.63;;;;;;;16.53;100.00;93006.03;5010837;28;20058;-81
2023/09/10 05:28:16;;;;;;;18.65;13.38;;;;;;;16.62;100.00;93012.09;4997020;28;20038;-82
2023/09/10 05:30:43;;;;;;;20.23;13.50;;;;;;;16.67;100.00;93009.28;5003864;28;20061;-82
2023/09/10 05:33:08;;;;;;;19.30;13.15;;;;;;;16.70;100.00;93005.25;5018700;28;20045;-82
2023/09/10 05:35:34;;;;;;;20.15;13.10;;;;;;;16.82;100.00;93018.66;5012085;28;20041;-82
2023/09/10 05:38:00;;;;;;;20.85;13.20;;;;;;;16.91;100.00;93018.66;5026337;28;20026;-81
2023/09/10 05:40:25;;;;;;;19.52;13.13;;;;;;;17.02;100.00;93017.22;5008203;28;20048;-82
2023/09/10 05:42:52;;;;;;;18.02;13.20;;;;;;;17.14;100.00;93016.63;4993346;28;20038;-82
2023/09/10 05:45:18;;;;;;;16.42;12.52;;;;;;;17.26;100.00;93009.56;5012702;28;20084;-82
2023/09/10 05:47:44;;;;;;;19.88;13.38;;;;;;;17.39;100.00;93009.72;5010368;28;20462;-81
2023/09/10 05:50:10;;;;;;;16.60;12.95;;;;;;;17.51;100.00;93004.53;5036733;28;20069;-80
2023/09/10 05:52:36;;;;;;;19.25;12.80;;;;;;;17.68;100.00;93012.44;4994002;28;20068;-81
2023/09/10 05:55:02;;;;;;;18.25;12.30;;;;;;;17.84;100.00;93006.66;5003197;28;20132;-81
2023/09/10 05:57:28;;;;;;;16.30;12.25;;;;;;;18.24;100.00;92998.34;5012312;28;20115;-80
2023/09/10 05:59:54;;;;;;;18.20;12.40;;;;;;;19.12;100.00;93004.59;5006615;28;20042;-81
2023/09/10 06:02:19;;;;;;;16.35;11.80;;;;;;;19.98;100.00;93002.13;5012302;28;20129;-81
2023/09/10 06:04:45;;;;;;;18.98;11.98;;;;;;;20.77;100.00;93010.59;5030559;28;20069;-82
2023/09/10 06:07:11;;;;;;;15.30;11.10;;;;;;;21.49;100.00;93007.22;5000895;28;20067;-81
2023/09/10 06:09:37;;;;;;;16.10;11.20;;;;;;;22.10;100.00;93014.03;5012806;28;20083;-82
2023/09/10 06:12:03;;;;;;;14.38;11.07;;;;;;;22.62;100.00;93001.50;5030006;28;20052;-82
2023/09/10 06:14:34;;;;;;;14.52;10.43;;;;;;;23.14;100.00;93002.22;4996455;28;20448;-82
2023/09/10 06:17:01;;;;;;;13.88;10.35;;;;;;;23.69;100.00;93008.19;5004997;28;20038;-82
2023/09/10 06:19:27;;;;;;;13.73;10.50;;;;;;;24.20;100.00;93002.56;5011830;28;20454;-83
2023/09/10 06:21:52;;;;;;;15.32;10.45;;;;;;;24.69;100.00;93003.66;5012066;28;20054;-82
2023/09/10 06:24:19;;;;;;;12.40;10.27;;;;;;;25.02;100.00;93002.97;5014020;28;20052;-83
2023/09/10 06:26:44;;;;;;;13.98;10.20;;;;;;;25.27;100.00;92991.78;4996606;28;20068;-83
2023/09/10 06:29:11;;;;;;;19.75;10.40;;;;;;;25.68;100.00;92997.19;5002116;28;20049;-83
2023/09/10 06:31:37;;;;;;;15.23;9.77;;;;;;;26.26;100.00;92991.19;4998273;28;20045;-82
2023/09/10 06:34:04;;;;;;;15.50;10.13;;;;;;;26.38;100.00;93001.63;5007546;28;20053;-83
2023/09/10 06:36:31;;;;;;;12.52;10.05;;;;;;;26.54;100.00;92995.22;5012791;28;20109;-83
2023/09/10 06:38:57;;;;;;;15.70;9.60;;;;;;;26.92;100.00;92996.59;5005286;28;20056;-83
2023/09/10 06:41:23;;;;;;;15.55;10.00;;;;;;;27.22;99.66;92994.84;5017103;28;20029;-83
2023/09/10 06:43:48;;;;;;;13.25;10.10;;;;;;;27.42;95.04;92998.72;5027671;28;20033;-83
2023/09/10 06:46:17;;;;;;;14.73;10.00;;;;;;;27.67;93.23;92996.09;5004567;28;20036;-83
2023/09/10 06:48:42;;;;;;;15.85;9.70;;;;;;;28.34;88.03;93002.72;4974014;28;20034;-82
2023/09/10 06:51:08;;;;;;;16.80;9.48;;;;;;;29.00;81.81;93002.25;4975089;28;20088;-83
2023/09/10 06:53:34;;;;;;;13.57;9.38;;;;;;;29.46;79.97;92995.16;5019918;28;20034;-83
2023/09/10 06:56:00;;;;;;;11.35;9.00;;;;;;;30.06;75.38;92999.47;4998054;28;20126;-83
2023/09/10 06:58:25;;;;;;;14.45;9.38;;;;;;;29.38;73.02;92999.06;4999361;28;20081;-82
2023/09/10 07:00:51;;;;;;;11.57;8.90;;;;;;;29.72;74.26;92996.56;5021217;28;20526;-83
2023/09/10 07:03:17;;;;;;;13.25;9.02;;;;;;;29.67;74.59;92996.97;5000060;28;20053;-82
2023/09/10 07:05:43;;;;;;;10.52;8.90;;;;;;;29.34;75.58;92995.59;4997756;28;20030;-82
2023/09/10 07:08:11;;;;;;;10.82;8.70;;;;;;;28.82;74.70;92994.22;5005746;28;20033;-82
2023/09/10 07:10:37;;;;;;;15.73;9.20;;;;;;;27.74;80.14;92984.59;5014863;28;20538;-82
2023/09/10 07:13:07;;;;;;;15.35;9.63;;;;;;;26.88;84.41;92992.34;5032641;28;20033;-82
2023/09/10 07:15:34;;;;;;;11.65;9.52;;;;;;;26.18;87.32;92987.66;5004739;28;20049;-81
2023/09/10 07:18:00;;;;;;;13.80;10.32;;;;;;;25.63;94.36;92994.84;5016223;28;20033;-82
2023/09/10 07:20:26;;;;;;;13.55;10.02;;;;;;;25.44;95.15;92999.22;5015361;28;20024;-81
2023/09/10 07:22:51;;;;;;;12.48;10.05;;;;;;;25.14;96.98;92989.31;5030743;28;20037;-81
2023/09/10 07:25:17;;;;;;;13.63;10.25;;;;;;;24.97;99.72;92997.13;5005531;28;20476;-83
2023/09/10 07:27:42;;;;;;;12.90;10.27;;;;;;;24.94;100.00;92994.03;5013384;28;20065;-83
2023/09/10 07:30:08;;;;;;;16.10;10.68;;;;;;;24.69;99.36;93004.44;5014665;28;20125;-83
2023/09/10 07:32:34;;;;;;;15.15;10.77;;;;;;;24.24;100.00;93000.72;5035119;28;20025;-82
2023/09/10 07:34:59;;;;;;;14.38;10.68;;;;;;;23.80;100.00;92992.34;5009910;28;20068;-83
2023/09/10 07:37:25;;;;;;;14.55;11.32;;;;;;;23.70;100.00;93005.16;5017696;28;20048;-83
2023/09/10 07:39:50;;;;;;;15.43;11.00;;;;;;;23.69;100.00;93005.53;5030613;28;20050;-81
2023/09/10 07:42:17;;;;;;;13.82;10.63;;;;;;;23.70;100.00;93004.38;5037736;28;20026;-81
2023/09/10 07:44:42;;;;;;;18.67;11.82;;;;;;;23.61;100.00;93009.19;5032177;28;20045;-81
2023/09/10 07:47:09;;;;;;;15.63;10.70;;;;;;;23.49;100.00;93007.47;5018157;28;20033;-83
2023/09/10 07:49:35;;;;;;;13.50;11.15;;;;;;;23.47;100.00;93007.81;5034783;28;20026;-83
2023/09/10 07:52:03;;;;;;;15.20;10.98;;;;;;;23.48;100.00;93001.34;5012800;28;20061;-83
2023/09/10 07:54:29;;;;;;;14.80;11.02;;;;;;;23.31;100.00;93007.13;5004208;28;20037;-83
2023/09/10 07:56:55;;;;;;;14.60;10.77;;;;;;;23.45;100.00;93007.38;5032314;28;20037;-83
2023/09/10 07:59:20;;;;;;;14.80;10.75;;;;;;;23.52;100.00;93009.41;5001524;28;20056;-83
2023/09/10 08:01:46;;;;;;;14.75;11.13;;;;;;;23.26;100.00;93008.19;5013468;28;20052;-83
2023/09/10 08:04:12;;;;;;;15.02;11.15;;;;;;;23.23;100.00;93003.53;5015381;28;20045;-82
2023/09/10 08:06:38;;;;;;;15.07;10.48;;;;;;;23.52;100.00;93008.66;5032032;28;20141;-83
2023/09/10 08:09:03;;;;;;;15.50;11.60;;;;;;;23.45;100.00;93014.63;5034208;28;20132;-83
2023/09/10 08:11:29;;;;;;;15.32;11.70;;;;;;;23.37;100.00;93024.44;5033716;28;20041;-82
2023/09/10 08:13:54;;;;;;;14.35;10.98;;;;;;;23.23;100.00;93016.88;5017072;28;20092;-82
2023/09/10 08:16:20;;;;;;;16.10;11.02;;;;;;;23.45;100.00;93018.06;5017874;28;20039;-82
2023/09/10 08:18:46;;;;;;;16.92;11.20;;;;;;;23.69;100.00;93019.66;5032426;28;20124;-83
2023/09/10 08:21:11;;;;;;;17.67;11.55;;;;;;;23.53;100.00;93016.31;5014783;28;20094;-82
2023/09/10 08:23:37;;;;;;;16.67;11.07;;;;;;;23.38;100.00;93015.28;5032342;28;20129;-82
2023/09/10 08:26:03;;;;;;;16.20;11.10;;;;;;;23.55;100.00;93019.38;5039408;28;20056;-83
2023/09/10 08:28:29;;;;;;;15.85;11.07;;;;;;;23.63;100.00;93012.28;5032544;28;20038;-82
2023/09/10 08:30:54;;;;;;;16.20;11.20;;;;;;;23.62;100.00;93016.06;5040859;28;20045;-82
2023/09/10 08:33:21;;;;;;;16.10;10.70;;;;;;;23.93;100.00;93014.34;5014733;28;20030;-83
2023/09/10 08:35:51;;;;;;;14.05;10.68;;;;;;;23.92;100.00;93012.81;5036765;28;20383;-83
2023/09/10 08:38:17;;;;;;;15.18;10.32;;;;;;;23.86;100.00;93013.09;5027374;28;20091;-83
2023/09/10 08:41:03;;;;;;;15.77;10.77;;;;;;;23.87;100.00;93019.22;5044100;28;20484;-83
2023/09/10 08:43:35;;;;;;;16.02;11.15;;;;;;;23.55;100.00;93016.72;5033095;28;20037;-83
2023/09/10 08:46:03;;;;;;;16.02;11.68;;;;;;;23.42;100.00;93015.34;5032115;28;20057;-83
2023/09/10 08:48:32;;;;;;;15.20;11.27;;;;;;;23.60;100.00;93018.34;5023044;28;20030;-82
2023/09/10 08:50:58;;;;;;;14.40;10.85;;;;;;;23.81;100.00;93015.28;5015066;28;20048;-83
2023/09/10 08:53:25;;;;;;;15.77;10.85;;;;;;;24.00;100.00;93025.16;5036867;28;20305;-83
2023/09/10 08:55:52;;;;;;;17.13;11.05;;;;;;;24.08;100.00;93024.91;5034970;28;20056;-83
2023/09/10 08:58:19;;;;;;;13.75;10.52;;;;;;;23.95;100.00;93023.53;5014463;28;20054;-83
2023/09/10 09:00:46;;;;;;;15.95;10.82;;;;;;;24.26;100.00;93025.19;5016959;28;20041;-83
2023/09/10 09:03:12;;;;;;;17.60;10.30;;;;;;;24.20;100.00;93020.50;5014808;28;20069;-82
2023/09/10 09:05:40;;;;;;;14.50;11.60;;;;;;;24.11;100.00;93026.09;5016035;28;20038;-82
2023/09/10 09:08:10;;;;;;;16.42;10.27;;;;;;;24.29;100.00;93021.78;5008436;28;20029;-83
2023/09/10 09:10:36;;;;;;;14.15;11.38;;;;;;;24.59;100.00;93021.13;5016493;28;20029;-83
2023/09/10 09:13:08;;;;;;;14.07;10.88;;;;;;;24.47;100.00;93023.97;5016554;28;20041;-82
2023/09/10 09:15:34;;;;;;;14.93;11.00;;;;;;;24.60;100.00;93030.69;5007955;28;20129;-83
2023/09/10 09:18:01;;;;;;;15.10;11.77;;;;;;;24.30;100.00;93023.34;5011534;28;20073;-82
2023/09/10 09:20:30;;;;;;;16.73;11.88;;;;;;;24.52;100.00;93026.38;5014639;28;20100;-83
2023/09/10 09:23:03;;;;;;;16.77;11.52;;;;;;;24.67;100.00;93027.34;5015924;28;20057;-81
2023/09/10 09:25:29;;;;;;;14.07;11.02;;;;;;;24.80;100.00;93030.59;5012292;28;20026;-83
2023/09/10 09:27:56;;;;;;;16.05;10.95;;;;;;;24.94;100.00;93020.81;5013542;28;20073;-82
2023/09/10 09:30:22;;;;;;;18.52;10.75;;;;;;;24.75;97.56;93017.53;5015067;28;20034;-82
2023/09/10 09:32:49;;;;;;;16.90;11.25;;;;;;;24.79;100.00;93019.13;5011761;28;20135;-83
2023/09/10 09:35:14;;;;;;;15.30;11.55;;;;;;;24.60;100.00;93016.53;5012400;28;20048;-83
2023/09/10 09:37:41;;;;;;;15.48;10.77;;;;;;;24.80;100.00;93009.94;4995249;28;20030;-83
2023/09/10 09:40:09;;;;;;;17.95;11.32;;;;;;;25.04;100.00;93014.06;5011774;28;20443;-83
2023/09/10 09:42:38;;;;;;;14.77;10.90;;;;;;;24.92;100.00;93009.69;5011692;28;20073;-81
2023/09/10 09:45:05;;;;;;;13.23;10.80;;;;;;;24.56;100.00;93008.47;5011325;28;20014;-81
2023/09/10 09:47:31;;;;;;;15.23;11.50;;;;;;;24.49;100.00;93005.69;5014634;28;20129;-81
2023/09/10 09:49:58;;;;;;;14.00;11.40;;;;;;;24.63;100.00;93007.78;5012623;28;20058;-81
2023/09/10 09:52:24;;;;;;;14.43;10.95;;;;;;;24.73;100.00;92999.13;5014088;28;20036;-83
2023/09/10 09:54:50;;;;;;;15.10;11.60;;;;;;;24.86;100.00;92997.78;5015916;28;20073;-83
2023/09/10 09:57:19;;;;;;;13.77;11.07;;;;;;;24.85;100.00;92998.13;5018262;28;20037;-82
2023/09/10 09:59:45;;;;;;;19.92;11.82;;;;;;;24.36;100.00;93002.41;5011761;28;20034;-82
2023/09/10 10:02:15;;;;;;;16.90;11.20;;;;;;;24.45;100.00;92996.81;5012604;28;20230;-82
2023/09/10 10:04:42;;;;;;;13.20;9.43;;;;;;;24.50;100.00;93001.88;5032524;28;20097;-83
2023/09/10 10:07:12;;;;;;;17.58;10.88;;;;;;;24.66;97.29;92999.81;5040100;28;20033;-82
2023/09/10 10:09:40;;;;;;;14.57;10.50;;;;;;;24.68;100.00;92994.88;5037062;28;20033;-83
2023/09/10 10:12:07;;;;;;;16.92;11.48;;;;;;;24.61;98.11;93002.81;5035230;28;20029;-83
2023/09/10 10:14:34;;;;;;;14.93;11.13;;;;;;;24.83;97.31;92997.72;5038867;28;20059;-82
2023/09/10 10:17:02;;;;;;;19.75;11.27;;;;;;;24.68;98.66;92996.78;5036971;28;20101;-82
2023/09/10 10:19:32;;;;;;;16.17;10.50;;;;;;;24.78;100.00;92996.16;5022236;28;20132;-82
2023/09/10 10:21:58;;;;;;;15.80;10.60;;;;;;;24.77;97.33;92986.59;5035810;28;20065;-82
2023/09/10 10:24:25;;;;;;;14.65;10.55;;;;;;;24.96;96.25;92987.56;5040241;28;20052;-82
2023/09/10 10:26:54;;;;;;;16.13;10.70;;;;;;;25.01;96.73;92982.66;5035569;28;20034;-82
2023/09/10 10:29:21;;;;;;;16.92;10.70;;;;;;;25.31;100.00;92990.69;5035855;28;20089;-82
2023/09/10 10:32:17;;;;;;;13.20;10.77;;;;;;;25.70;89.53;92994.91;5038399;28;20033;-82
2023/09/10 10:34:53;;;;;;;18.27;11.00;;;;;;;25.99;91.75;92993.28;5025277;28;20046;-82
2023/09/10 10:37:26;;;;;;;15.52;11.38;;;;;;;25.80;88.78;92994.22;5039985;28;20089;-82
2023/09/10 10:40:18;;;;;;;17.55;11.10;;;;;;;25.75;90.10;92994.56;5036594;28;20033;-83
2023/09/10 10:43:16;;;;;;;20.33;11.40;;;;;;;25.57;90.25;92989.03;5018661;28;20057;-82
2023/09/10 10:45:44;;;;;;;15.15;11.18;;;;;;;25.55;91.37;92983.28;5038150;28;20045;-82
2023/09/10 10:48:18;;;;;;;15.95;10.80;;;;;;;25.99;92.12;92987.91;5018448;28;20021;-82
2023/09/10 10:50:45;;;;;;;15.32;11.80;;;;;;;25.45;88.05;92989.31;5018886;28;20029;-81
2023/09/10 10:53:17;;;;;;;16.77;11.18;;;;;;;25.30;90.26;92980.34;5037560;28;20038;-82
2023/09/10 10:55:44;;;;;;;15.10;11.13;;;;;;;25.29;91.91;92981.47;5020739;28;20464;-82
2023/09/10 10:58:10;;;;;;;18.95;11.70;;;;;;;25.49;92.57;92984.75;5018572;28;20104;-82
2023/09/10 11:00:35;;;;;;;13.10;10.23;;;;;;;25.52;93.14;92974.06;5005855;28;20547;-82
2023/09/10 11:03:13;;;;;;;14.20;10.73;;;;;;;25.39;92.80;92978.13;5025233;28;20033;-82
2023/09/10 11:06:04;;;;;;;18.52;11.55;;;;;;;25.50;90.78;92976.34;5031280;28;20038;-81
2023/09/10 11:08:35;;;;;;;20.25;11.02;;;;;;;25.49;92.12;92979.41;5032064;28;20332;-82
2023/09/10 11:11:03;;;;;;;14.55;10.73;;;;;;;25.29;91.09;92976.13;5033782;28;20037;-82
2023/09/10 11:13:30;;;;;;;18.52;11.10;;;;;;;25.37;91.32;92969.69;5034859;28;20040;-82